Time;durP1;ratioP1;P1;durP2;ratioP2;P2;SDS_P1;SDS_P2;PMS_P1;PMS_P2;Temp;Humidity;BMP_temperature;BMP_pressure;BME280_temperature;BME280_humidity;BME280_pressure;Samples;Min_cycle;Max_cycle;Signal;HPM_P1;HPM_P2
2022/09/10 00:01:37;;;;;;;;;5.00;4.33;;;;;17.59;84.13;100993.19;5018981;28;46030;-78
2022/09/10 00:04:09;;;;;;;;;4.33;3.00;;;;;17.59;84.40;100989.66;5019171;28;45538;-78
2022/09/10 00:06:37;;;;;;;;;2.67;2.67;;;;;17.55;84.86;100983.91;5030506;28;48253;-77
2022/09/10 00:09:03;;;;;;;;;3.67;3.67;;;;;17.57;84.97;100991.75;5019367;28;45315;-78
2022/09/10 00:11:30;;;;;;;;;5.00;4.00;;;;;17.48;84.60;100985.81;5019147;28;45493;-78
2022/09/10 00:13:56;;;;;;;;;3.33;3.00;;;;;17.50;84.68;100991.78;5018420;27;45349;-78
2022/09/10 00:16:22;;;;;;;;;4.00;2.00;;;;;17.50;84.81;100983.72;5024970;28;45240;-78
2022/09/10 00:18:49;;;;;;;;;4.00;4.00;;;;;17.45;85.05;100987.03;5022918;28;45371;-78
2022/09/10 00:21:19;;;;;;;;;5.33;3.67;;;;;17.49;84.71;100996.34;5019105;28;45392;-78
2022/09/10 00:23:45;;;;;;;;;5.00;4.00;;;;;17.48;85.08;100997.34;5028035;28;46423;-78
2022/09/10 00:26:12;;;;;;;;;4.67;4.67;;;;;17.45;84.88;100987.03;5023764;28;48310;-79
2022/09/10 00:28:37;;;;;;;;;4.33;4.33;;;;;17.41;85.00;100991.19;5026397;28;45360;-78
2022/09/10 00:31:03;;;;;;;;;4.00;4.00;;;;;17.44;85.17;100993.44;5035319;28;45448;-78
2022/09/10 00:33:28;;;;;;;;;4.00;3.00;;;;;17.43;85.39;100991.81;5028316;28;45401;-78
2022/09/10 00:35:54;;;;;;;;;2.00;2.00;;;;;17.41;85.13;100983.97;5018608;28;46385;-78
2022/09/10 00:38:19;;;;;;;;;3.00;3.00;;;;;17.46;85.02;100982.50;5025420;28;46116;-79
2022/09/10 00:40:45;;;;;;;;;3.33;3.33;;;;;17.48;85.43;100989.28;5024347;28;45386;-78
2022/09/10 00:43:19;;;;;;;;;4.67;4.00;;;;;17.45;85.34;100995.09;5019307;28;45398;-78
2022/09/10 00:45:49;;;;;;;;;6.33;3.33;;;;;17.46;85.07;100991.38;5030566;28;46171;-78
2022/09/10 00:48:29;;;;;;;;;3.00;2.33;;;;;17.43;85.37;100983.75;5018237;28;45350;-78
2022/09/10 00:50:57;;;;;;;;;4.00;2.67;;;;;17.43;84.91;100983.75;5028825;28;45327;-78
2022/09/10 00:53:27;;;;;;;;;3.67;3.33;;;;;17.39;85.53;100977.97;5022189;28;45377;-78
2022/09/10 00:55:57;;;;;;;;;2.33;2.33;;;;;17.39;84.91;100977.16;5017765;28;46362;-78
2022/09/10 00:58:26;;;;;;;;;5.33;3.00;;;;;17.37;85.19;100977.38;5029920;28;45697;-78
2022/09/10 01:00:56;;;;;;;;;3.00;3.00;;;;;17.41;85.11;100989.34;5023474;28;45344;-77
2022/09/10 01:03:22;;;;;;;;;3.33;3.33;;;;;17.41;85.00;100988.50;5019671;28;45414;-78
2022/09/10 01:05:49;;;;;;;;;2.00;2.00;;;;;18.01;85.15;100976.56;5021894;28;47300;-77
2022/09/10 01:08:16;;;;;;;;;4.00;2.67;;;;;17.51;84.04;100978.13;5020441;28;45340;-78
2022/09/10 01:11:25;;;;;;;;;3.00;3.00;;;;;17.98;84.29;100979.69;5019890;28;45317;-78
2022/09/10 01:14:10;;;;;;;;;3.00;3.00;;;;;17.71;82.40;100961.06;5019418;28;45406;-78
2022/09/10 01:16:57;;;;;;;;;5.00;5.00;;;;;17.48;84.04;100975.88;5028815;28;47667;-78
2022/09/10 01:19:47;;;;;;;;;4.67;3.00;;;;;17.98;83.83;100978.84;5019442;28;45349;-78
2022/09/10 01:22:49;;;;;;;;;3.00;3.00;;;;;18.11;83.03;100975.31;5019696;28;45361;-79
2022/09/10 01:25:36;;;;;;;;;3.00;3.00;;;;;17.79;82.21;100973.41;5019659;28;45304;-79
2022/09/10 01:28:08;;;;;;;;;5.00;4.00;;;;;17.61;83.24;100966.09;5025172;28;47176;-78
2022/09/10 01:30:40;;;;;;;;;6.00;4.00;;;;;18.17;82.59;100977.13;5024333;28;45232;-78
2022/09/10 01:33:23;;;;;;;;;4.33;3.00;;;;;17.54;83.57;100983.06;5019294;28;45455;-79
2022/09/10 01:36:12;;;;;;;;;2.33;2.33;;;;;17.47;83.83;100979.59;5031481;28;46301;-78
2022/09/10 01:38:40;;;;;;;;;2.00;2.00;;;;;17.48;84.75;100981.22;5028148;28;48343;-79
2022/09/10 01:41:07;;;;;;;;;4.00;3.00;;;;;17.46;84.44;100980.66;5021030;28;45356;-78
2022/09/10 01:43:32;;;;;;;;;2.33;2.00;;;;;17.47;84.85;100979.59;5019814;28;45337;-78
2022/09/10 01:46:18;;;;;;;;;4.00;4.00;;;;;17.51;85.11;100985.38;5018761;28;45336;-79
2022/09/10 01:49:08;;;;;;;;;2.67;2.67;;;;;17.53;84.93;100988.66;5024185;28;47004;-77
2022/09/10 01:52:01;;;;;;;;;4.00;4.00;;;;;17.49;85.23;100990.97;5032595;28;45390;-78
2022/09/10 01:55:02;;;;;;;;;4.00;4.00;;;;;17.44;85.42;100982.72;5019217;28;45278;-78
2022/09/10 01:57:43;;;;;;;;;3.33;3.33;;;;;17.49;85.22;100985.59;5035979;28;47353;-78
2022/09/10 02:00:11;;;;;;;;;2.67;2.67;;;;;17.47;84.82;100984.97;5021966;28;45597;-78
2022/09/10 02:02:43;;;;;;;;;3.00;3.00;;;;;17.53;85.28;100991.34;5018973;28;45452;-78
2022/09/10 02:05:10;;;;;;;;;5.00;4.00;;;;;17.53;85.09;100999.41;5018150;28;45268;-78
2022/09/10 02:07:36;;;;;;;;;3.67;3.33;;;;;17.47;84.75;100984.97;5020129;28;45340;-78
2022/09/10 02:10:05;;;;;;;;;5.00;5.00;;;;;17.54;84.63;100991.13;5030736;28;47480;-78
2022/09/10 02:12:30;;;;;;;;;5.00;3.67;;;;;17.45;84.79;100978.16;5053637;28;45802;-79
2022/09/10 02:14:57;;;;;;;;;4.00;4.00;;;;;17.40;85.01;100965.38;5025974;28;45416;-79
2022/09/10 02:17:27;;;;;;;;;3.33;2.00;;;;;17.51;84.52;100986.19;5029322;28;45244;-77
2022/09/10 02:19:54;;;;;;;;;3.33;3.00;;;;;17.50;84.86;100981.84;5019330;28;45278;-78
2022/09/10 02:22:22;;;;;;;;;4.67;4.67;;;;;17.45;84.95;100978.16;5031238;28;45345;-78
2022/09/10 02:24:48;;;;;;;;;3.00;3.00;;;;;17.46;84.81;100980.66;5017881;28;45290;-78
2022/09/10 02:27:14;;;;;;;;;3.00;3.00;;;;;17.49;84.57;100980.22;5018429;28;45259;-78
2022/09/10 02:29:40;;;;;;;;;3.67;3.67;;;;;17.48;84.71;100981.22;5021454;28;47190;-78
2022/09/10 02:32:07;;;;;;;;;4.00;3.00;;;;;17.52;84.76;100985.16;5017613;28;45320;-78
2022/09/10 02:34:33;;;;;;;;;5.00;3.00;;;;;17.40;84.86;100981.50;5018661;28;45427;-78
2022/09/10 02:36:58;;;;;;;;;3.67;3.67;;;;;17.50;84.94;100989.91;5018445;28;46981;-78
2022/09/10 02:39:24;;;;;;;;;7.00;4.33;;;;;17.50;84.94;100987.22;5018039;28;45598;-78
2022/09/10 02:41:49;;;;;;;;;2.67;2.00;;;;;17.59;84.42;100997.72;5023155;28;45626;-78
2022/09/10 02:44:15;;;;;;;;;5.33;4.00;;;;;17.49;84.79;100984.75;5019390;28;45416;-79
2022/09/10 02:46:40;;;;;;;;;4.33;3.00;;;;;17.49;84.82;100974.00;5017296;28;46937;-77
2022/09/10 02:49:06;;;;;;;;;4.67;4.00;;;;;17.51;84.50;100990.75;5018467;28;45393;-79
2022/09/10 02:51:32;;;;;;;;;3.67;3.67;;;;;17.45;85.13;100981.66;5031880;28;45384;-78
2022/09/10 02:53:57;;;;;;;;;5.33;2.67;;;;;17.50;84.37;100989.91;5018674;28;45527;-78
2022/09/10 02:56:22;;;;;;;;;4.00;4.00;;;;;17.51;84.97;100994.25;5018933;28;45325;-78
2022/09/10 02:58:49;;;;;;;;;5.00;5.00;;;;;17.45;84.46;100986.22;5034796;28;47274;-79
2022/09/10 03:01:18;;;;;;;;;7.33;5.33;;;;;17.88;84.52;100992.78;5032697;28;45293;-79
2022/09/10 03:03:48;;;;;;;;;5.00;4.33;;;;;17.56;84.54;100998.13;5018050;28;45421;-78
2022/09/10 03:06:14;;;;;;;;;4.00;4.00;;;;;17.69;84.35;101005.31;5019244;28;45355;-79
2022/09/10 03:08:39;;;;;;;;;7.33;5.33;;;;;17.57;84.05;101005.19;5018309;28;45428;-78
2022/09/10 03:11:05;;;;;;;;;5.00;3.00;;;;;17.56;84.06;100998.13;5017426;28;46016;-78
2022/09/10 03:13:31;;;;;;;;;6.67;5.00;;;;;17.54;84.50;100999.19;5018065;28;45440;-78
2022/09/10 03:15:57;;;;;;;;;6.00;4.33;;;;;17.69;84.41;101002.63;5020403;28;45661;-78
2022/09/10 03:18:23;;;;;;;;;4.00;3.00;;;;;17.74;83.93;101009.00;5025502;28;45392;-79
2022/09/10 03:20:50;;;;;;;;;6.00;3.00;;;;;17.62;84.27;100995.44;5018241;28;45381;-79
2022/09/10 03:23:17;;;;;;;;;2.00;2.00;;;;;17.63;84.27;100999.75;5018605;28;45326;-78
2022/09/10 03:25:42;;;;;;;;;3.00;3.00;;;;;17.65;83.85;100999.53;5018852;28;45449;-78
2022/09/10 03:28:09;;;;;;;;;4.00;4.00;;;;;17.63;84.11;100988.22;5017924;28;46043;-78
2022/09/10 03:30:35;;;;;;;;;4.33;4.33;;;;;17.62;84.08;100983.84;5018124;28;45295;-78
2022/09/10 03:33:01;;;;;;;;;3.67;3.33;;;;;17.71;84.07;100992.47;5017710;28;45478;-79
2022/09/10 03:35:26;;;;;;;;;5.67;5.00;;;;;17.82;83.50;100986.44;5017822;28;45397;-79
2022/09/10 03:37:51;;;;;;;;;6.67;6.67;;;;;17.79;83.90;100989.56;5030973;28;47967;-78
2022/09/10 03:40:18;;;;;;;;;6.00;4.67;;;;;17.72;83.76;100994.94;5018940;28;47204;-78
2022/09/10 03:42:43;;;;;;;;;5.00;5.00;;;;;17.77;83.59;100997.81;5017457;28;45412;-78
2022/09/10 03:45:09;;;;;;;;;4.00;4.00;;;;;17.72;82.99;100984.19;5017881;28;45243;-78
2022/09/10 03:47:36;;;;;;;;;4.00;4.00;;;;;17.69;83.14;100984.63;5018166;28;47612;-79
2022/09/10 03:50:03;;;;;;;;;6.67;6.67;;;;;17.66;82.93;100979.72;5021206;28;45235;-78
2022/09/10 03:52:28;;;;;;;;;6.00;3.33;;;;;17.64;83.30;100992.53;5030032;28;45269;-78
2022/09/10 03:54:54;;;;;;;;;5.33;3.67;;;;;17.74;83.83;100992.88;5017626;28;45321;-79
2022/09/10 03:57:19;;;;;;;;;3.33;3.33;;;;;17.69;nan;100990.00;5016000;28;47450;-78
2022/09/10 03:59:44;;;;;;;;;3.00;3.00;;;;;18.04;82.77;100980.69;5016353;28;46048;-78
2022/09/10 04:02:10;;;;;;;;;4.67;4.33;;;;;17.88;82.55;100988.25;5018216;28;45241;-79
2022/09/10 04:04:36;;;;;;;;;4.00;4.00;;;;;17.84;83.14;100988.91;5027482;28;46306;-78
2022/09/10 04:07:02;;;;;;;;;5.33;4.00;;;;;17.83;82.69;100987.22;5020671;28;46415;-78
2022/09/10 04:09:28;;;;;;;;;4.00;4.00;;;;;17.95;82.77;100992.75;5018089;28;45309;-78
2022/09/10 04:11:53;;;;;;;;;7.33;6.67;;;;;17.68;83.31;100985.69;5016396;28;45430;-78
2022/09/10 04:14:18;;;;;;;;;4.00;4.00;;;;;17.82;83.07;100988.28;5016259;28;46057;-78
2022/09/10 04:16:44;;;;;;;;;3.67;3.00;;;;;18.00;82.77;100996.44;5025927;28;45397;-78
2022/09/10 04:19:09;;;;;;;;;3.00;3.00;;;;;18.02;82.13;100980.09;5018081;28;45339;-78
2022/09/10 04:21:35;;;;;;;;;5.67;5.33;;;;;18.06;81.99;100989.38;5017314;28;45412;-79
2022/09/10 04:24:00;;;;;;;;;2.67;2.67;;;;;17.96;82.41;100991.72;5014894;28;47193;-79
2022/09/10 04:26:26;;;;;;;;;3.00;3.00;;;;;18.04;81.91;100988.75;5016501;28;46293;-78
2022/09/10 04:28:52;;;;;;;;;5.33;5.33;;;;;18.10;81.75;100995.13;5017591;28;45455;-78
2022/09/10 04:31:18;;;;;;;;;5.67;5.67;;;;;18.11;81.46;100996.81;5020104;28;45353;-78
2022/09/10 04:33:43;;;;;;;;;4.33;3.00;;;;;18.00;81.98;100992.91;5030517;28;46941;-79
2022/09/10 04:36:09;;;;;;;;;5.67;4.67;;;;;18.02;82.03;101005.09;5021012;28;45668;-78
2022/09/10 04:38:38;;;;;;;;;7.00;5.00;;;;;18.04;81.69;101005.72;5029064;28;46059;-78
2022/09/10 04:41:04;;;;;;;;;4.00;4.00;;;;;18.06;81.58;101005.50;5023550;28;45364;-79
2022/09/10 04:43:30;;;;;;;;;5.33;4.00;;;;;18.07;81.45;101004.44;5019614;28;45471;-78
2022/09/10 04:45:55;;;;;;;;;4.67;3.33;;;;;18.09;81.69;101001.53;5018785;28;45474;-78
2022/09/10 04:48:24;;;;;;;;;3.67;3.33;;;;;18.11;81.74;101007.56;5021742;28;49936;-78
2022/09/10 04:50:50;;;;;;;;;6.00;5.00;;;;;18.12;81.62;101003.84;5028253;28;45240;-79
2022/09/10 04:53:16;;;;;;;;;5.33;4.67;;;;;18.14;81.86;101007.94;5023700;28;45329;-79
2022/09/10 04:55:43;;;;;;;;;6.00;5.33;;;;;18.12;81.58;101006.53;5019107;28;46066;-78
2022/09/10 04:58:09;;;;;;;;;5.67;5.67;;;;;18.14;81.40;101005.25;5032584;28;45409;-78
2022/09/10 05:00:35;;;;;;;;;3.00;3.00;;;;;18.13;81.49;101010.84;5039155;28;45403;-78
2022/09/10 05:03:00;;;;;;;;;4.67;3.00;;;;;18.13;81.58;101002.78;5029940;28;45782;-77
2022/09/10 05:05:27;;;;;;;;;4.33;3.33;;;;;18.11;81.50;101011.06;5036705;28;47284;-78
2022/09/10 05:07:52;;;;;;;;;3.00;3.00;;;;;18.09;81.46;101010.44;5030726;28;45380;-78
2022/09/10 05:10:20;;;;;;;;;6.00;5.00;;;;;18.11;81.62;101008.38;5032939;28;45409;-79
2022/09/10 05:12:46;;;;;;;;;7.00;5.67;;;;;18.14;81.64;101020.59;5026272;28;46379;-78
2022/09/10 05:15:12;;;;;;;;;3.33;3.33;;;;;18.14;81.49;101024.06;5025139;28;46636;-79
2022/09/10 05:17:37;;;;;;;;;4.33;4.00;;;;;18.12;81.67;101023.50;5030618;28;45295;-79
2022/09/10 05:20:05;;;;;;;;;6.00;6.00;;;;;18.12;81.73;101019.97;5019497;28;45372;-78
2022/09/10 05:22:30;;;;;;;;;6.00;5.00;;;;;18.10;81.56;101024.69;5019366;28;45539;-78
2022/09/10 05:24:56;;;;;;;;;6.00;5.00;;;;;18.16;81.83;101029.25;5024522;28;47013;-79
2022/09/10 05:27:21;;;;;;;;;3.33;3.33;;;;;18.16;81.30;101030.06;5032801;28;45735;-78
2022/09/10 05:29:47;;;;;;;;;4.00;3.00;;;;;18.12;81.18;101025.34;5018256;28;45224;-78
2022/09/10 05:32:12;;;;;;;;;7.33;4.67;;;;;18.18;81.38;101024.47;5019891;28;45329;-79
2022/09/10 05:34:38;;;;;;;;;5.00;4.00;;;;;18.16;81.38;101022.00;5037510;28;50340;-78
2022/09/10 05:37:04;;;;;;;;;5.67;5.00;;;;;18.01;81.61;101030.34;5036613;28;45442;-78
2022/09/10 05:39:30;;;;;;;;;4.67;4.00;;;;;18.01;81.80;101035.72;5024325;28;45403;-78
2022/09/10 05:41:56;;;;;;;;;8.33;4.67;;;;;17.99;81.92;101035.13;5025275;28;45880;-78
2022/09/10 05:44:21;;;;;;;;;4.00;4.00;;;;;17.99;82.36;101035.13;5022638;28;46215;-78
2022/09/10 05:46:47;;;;;;;;;4.00;4.00;;;;;17.96;82.12;101040.91;5026646;28;45805;-78
2022/09/10 05:49:12;;;;;;;;;5.00;4.00;;;;;17.95;81.78;101041.13;5022005;28;45527;-81
2022/09/10 05:51:38;;;;;;;;;4.67;4.67;;;;;17.96;81.77;101046.31;5031049;28;46117;-80
2022/09/10 05:54:03;;;;;;;;;3.33;3.33;;;;;17.98;82.05;101059.53;5020548;28;45326;-80
2022/09/10 05:56:29;;;;;;;;;2.67;2.67;;;;;17.97;82.06;101055.19;5020560;28;45396;-81
2022/09/10 05:58:54;;;;;;;;;4.33;4.00;;;;;17.98;81.93;101056.84;5017183;28;45479;-81
2022/09/10 06:01:19;;;;;;;;;5.00;5.00;;;;;17.98;81.88;101052.28;5018302;28;46232;-80
2022/09/10 06:03:45;;;;;;;;;6.00;4.67;;;;;18.01;82.14;101059.09;5032141;28;46930;-80
2022/09/10 06:06:10;;;;;;;;;7.33;5.00;;;;;17.95;81.48;101052.72;5030041;28;47184;-79
2022/09/10 06:08:36;;;;;;;;;4.00;4.00;;;;;17.97;81.61;101071.34;5035630;28;45371;-79
2022/09/10 06:11:04;;;;;;;;;5.00;5.00;;;;;17.91;81.68;101071.16;5023809;28;47374;-80
2022/09/10 06:13:31;;;;;;;;;4.33;4.33;;;;;18.01;82.04;101088.69;5023472;28;45551;-79
2022/09/10 06:15:57;;;;;;;;;3.67;3.67;;;;;17.76;82.07;101076.84;5038410;28;45353;-79
2022/09/10 06:18:22;;;;;;;;;8.00;6.00;;;;;17.71;82.58;101075.78;5025358;28;45338;-79
2022/09/10 06:20:48;;;;;;;;;5.33;4.00;;;;;17.84;82.40;101081.13;5033704;28;45885;-78
2022/09/10 06:23:15;;;;;;;;;4.67;4.00;;;;;17.92;82.19;101093.47;5028555;28;46178;-79
2022/09/10 06:25:41;;;;;;;;;5.00;5.00;;;;;17.98;81.57;101095.31;5018645;28;45275;-79
2022/09/10 06:28:06;;;;;;;;;6.33;6.00;;;;;18.04;81.94;101093.63;5017286;28;45342;-80
2022/09/10 06:30:31;;;;;;;;;4.67;4.00;;;;;18.06;81.90;101099.63;5031273;27;47466;-77
2022/09/10 06:32:57;;;;;;;;;7.00;5.67;;;;;18.09;81.90;101092.97;5016831;28;45184;-77
2022/09/10 06:35:24;;;;;;;;;5.33;5.00;;;;;18.04;81.84;101099.84;5016954;28;45606;-78
2022/09/10 06:37:49;;;;;;;;;3.67;3.67;;;;;18.05;81.94;101104.16;5016671;28;45164;-77
2022/09/10 06:40:15;;;;;;;;;3.00;3.00;;;;;18.06;81.92;101105.00;5016849;28;45372;-78
2022/09/10 06:42:41;;;;;;;;;4.67;4.67;;;;;18.11;81.79;101104.41;5016501;28;45550;-77
2022/09/10 06:45:06;;;;;;;;;6.33;5.00;;;;;18.11;81.46;101104.41;5016615;28;45390;-77
2022/09/10 06:47:32;;;;;;;;;6.00;4.33;;;;;18.10;81.76;101105.38;5039401;28;45671;-77
2022/09/10 06:49:57;;;;;;;;;5.00;5.00;;;;;18.16;81.49;101107.25;5020289;28;47479;-77
2022/09/10 06:52:23;;;;;;;;;5.33;5.33;;;;;18.04;81.69;101102.53;5027704;28;45343;-77
2022/09/10 06:54:50;;;;;;;;;6.33;6.00;;;;;18.00;81.71;101098.63;5016485;28;45337;-77
2022/09/10 06:57:15;;;;;;;;;4.00;4.00;;;;;18.23;81.74;101108.03;5016720;28;45287;-77
2022/09/10 06:59:40;;;;;;;;;3.67;3.67;;;;;18.08;81.41;101107.47;5016299;28;45677;-77
2022/09/10 07:02:07;;;;;;;;;5.67;4.67;;;;;18.07;81.90;101103.16;5029633;28;50288;-78
2022/09/10 07:04:32;;;;;;;;;4.33;4.00;;;;;18.12;81.41;101103.34;5025303;28;45336;-78
2022/09/10 07:06:58;;;;;;;;;4.00;4.00;;;;;18.14;81.24;101110.16;5049795;28;45271;-77
2022/09/10 07:09:24;;;;;;;;;6.00;6.00;;;;;18.40;80.95;101113.72;5016402;28;45700;-77
2022/09/10 07:11:49;;;;;;;;;5.00;4.00;;;;;18.36;80.90;101117.88;5015983;28;45448;-78
2022/09/10 07:14:14;;;;;;;;;4.33;4.33;;;;;18.42;80.54;101113.50;5016160;28;45448;-76
2022/09/10 07:16:43;;;;;;;;;8.00;5.33;;;;;18.17;80.82;101119.66;5029894;28;45458;-79
2022/09/10 07:19:12;;;;;;;;;5.00;5.00;;;;;18.19;81.07;101122.16;5026880;28;45625;-81
2022/09/10 07:21:38;;;;;;;;;7.00;5.33;;;;;18.19;81.61;101122.16;5037209;28;47618;-81
2022/09/10 07:24:04;;;;;;;;;8.33;5.00;;;;;18.24;81.51;101135.75;5031086;28;45373;-83
2022/09/10 07:26:30;;;;;;;;;4.00;4.00;;;;;18.23;81.66;101129.53;5016435;28;45312;-81
2022/09/10 07:28:57;;;;;;;;;5.67;5.00;;;;;18.30;81.75;101137.59;5024805;28;45425;-83
2022/09/10 07:31:28;;;;;;;;;6.67;4.00;;;;;18.33;81.45;101139.00;5029065;28;48176;-82
2022/09/10 07:33:55;;;;;;;;;5.67;5.00;;;;;18.32;81.31;101137.38;5025916;28;46013;-82
2022/09/10 07:36:21;;;;;;;;;5.00;4.33;;;;;18.29;81.50;101133.25;5014702;28;45427;-82
2022/09/10 07:38:50;;;;;;;;;8.00;5.33;;;;;18.33;81.22;101147.09;5016128;28;45275;-83
2022/09/10 07:41:16;;;;;;;;;5.67;4.00;;;;;18.33;81.36;101149.78;5025015;28;47557;-82
2022/09/10 07:43:42;;;;;;;;;7.33;5.67;;;;;18.29;81.50;101154.78;5015555;28;45352;-82
2022/09/10 07:46:19;;;;;;;;;5.00;3.00;;;;;18.32;81.87;101154.34;5030122;28;45495;-82
2022/09/10 07:48:51;;;;;;;;;4.00;4.00;;;;;18.27;81.69;101140.72;5016623;28;45635;-85
2022/09/10 07:51:18;;;;;;;;;4.33;4.33;;;;;18.31;81.37;101155.38;5023919;28;45542;-82
2022/09/10 07:53:45;;;;;;;;;5.67;5.67;;;;;18.38;81.81;101152.66;5016411;28;45286;-83
2022/09/10 07:56:12;;;;;;;;;4.00;4.00;;;;;18.39;81.27;101149.75;5016395;28;45283;-83
2022/09/10 07:58:38;;;;;;;;;5.67;5.00;;;;;18.45;81.45;101160.66;5016619;28;46179;-84
2022/09/10 08:01:09;;;;;;;;;7.00;4.00;;;;;18.44;80.87;101153.66;5023870;28;48143;-82
2022/09/10 08:03:35;;;;;;;;;5.67;4.00;;;;;18.48;80.98;101179.91;5049771;28;45275;-83
2022/09/10 08:06:02;;;;;;;;;7.00;7.00;;;;;18.48;81.31;101179.06;5017927;28;45386;-82
2022/09/10 08:08:30;;;;;;;;;6.33;5.67;;;;;18.53;81.03;101182.75;5020759;28;45523;-82
2022/09/10 08:11:12;;;;;;;;;4.67;4.67;;;;;18.51;81.53;101176.78;5035764;28;46009;-81
2022/09/10 08:13:40;;;;;;;;;5.00;5.00;;;;;18.57;81.06;101174.25;5024370;28;45459;-82
2022/09/10 08:16:11;;;;;;;;;6.33;6.33;;;;;18.63;81.02;101179.59;5035955;28;45417;-82
2022/09/10 08:18:37;;;;;;;;;5.00;5.00;;;;;18.67;80.96;101166.53;5033930;28;46357;-82
2022/09/10 08:21:04;;;;;;;;;3.33;3.33;;;;;18.75;80.79;101171.66;5021721;28;46077;-81
2022/09/10 08:23:30;;;;;;;;;4.33;4.33;;;;;18.78;80.82;101176.59;5020398;28;46100;-80
2022/09/10 08:25:57;;;;;;;;;5.33;4.33;;;;;18.76;80.48;101165.22;5038426;28;45420;-80
2022/09/10 08:28:23;;;;;;;;;6.00;5.00;;;;;18.85;80.54;101181.13;5029647;28;47140;-81
2022/09/10 08:30:59;;;;;;;;;4.67;4.67;;;;;18.84;80.49;101168.69;5036188;28;47275;-82
2022/09/10 08:33:24;;;;;;;;;6.33;6.33;;;;;18.91;80.08;101180.22;5030880;28;44801;-81
2022/09/10 08:35:57;;;;;;;;;2.00;1.33;;;;;19.01;80.13;101180.53;5046773;28;45271;-82
2022/09/10 08:38:33;;;;;;;;;7.00;6.33;;;;;19.01;80.18;101175.16;5039671;28;45263;-82
2022/09/10 08:41:01;;;;;;;;;4.00;4.00;;;;;19.11;79.91;101173.88;5043352;28;46405;-82
2022/09/10 08:43:51;;;;;;;;;5.67;4.67;;;;;19.14;79.18;101176.13;5031458;28;44899;-81
2022/09/10 08:46:25;;;;;;;;;5.33;5.33;;;;;19.19;79.26;101179.00;5038032;28;45293;-80
2022/09/10 08:49:09;;;;;;;;;5.00;5.00;;;;;19.27;79.32;101175.16;5043693;28;47433;-81
2022/09/10 08:51:46;;;;;;;;;6.33;6.00;;;;;19.34;78.92;101178.66;5029007;28;46286;-80
2022/09/10 08:54:24;;;;;;;;;4.33;4.00;;;;;19.45;78.89;101190.53;5027120;28;45752;-80
2022/09/10 08:56:52;;;;;;;;;6.67;5.00;;;;;19.52;78.57;101193.19;5028671;28;45191;-80
2022/09/10 08:59:25;;;;;;;;;5.00;5.00;;;;;19.51;78.01;101188.81;5041524;28;46949;-79
2022/09/10 09:02:00;;;;;;;;;3.67;3.67;;;;;19.62;78.05;101192.66;5036005;28;46414;-80
2022/09/10 09:04:37;;;;;;;;;4.00;4.00;;;;;19.70;78.51;101189.66;5039342;28;45389;-78
2022/09/10 09:07:11;;;;;;;;;4.00;4.00;;;;;19.86;77.78;101192.78;5045122;27;45567;-79
2022/09/10 09:09:36;;;;;;;;;7.00;6.00;;;;;19.94;77.77;101201.41;5040252;28;47721;-79
2022/09/10 09:12:16;;;;;;;;;7.00;6.33;;;;;19.95;77.09;101191.44;5027477;28;48356;-78
2022/09/10 09:14:44;;;;;;;;;4.00;2.67;;;;;20.07;76.74;101202.31;5034255;28;45292;-78
2022/09/10 09:17:32;;;;;;;;;4.00;4.00;;;;;20.17;76.54;101204.47;5035586;28;45352;-77
2022/09/10 09:20:04;;;;;;;;;5.33;4.33;;;;;20.22;76.84;101201.09;5023908;28;45430;-78
2022/09/10 09:23:01;;;;;;;;;5.33;5.33;;;;;20.33;76.54;101197.63;5022487;28;46219;-79
2022/09/10 09:25:32;;;;;;;;;7.00;4.33;;;;;20.36;76.26;101202.59;5039622;28;45469;-79
2022/09/10 09:27:57;;;;;;;;;5.33;5.33;;;;;20.43;75.13;101207.88;5027453;28;45282;-80
2022/09/10 09:30:30;;;;;;;;;5.00;5.00;;;;;20.53;75.10;101208.13;5032296;27;45310;-78
2022/09/10 09:33:02;;;;;;;;;5.33;3.00;;;;;20.62;74.43;101205.13;5038001;27;45406;-78
2022/09/10 09:35:35;;;;;;;;;4.00;4.00;;;;;20.74;73.96;101205.97;5026599;28;45323;-78
2022/09/10 09:38:06;;;;;;;;;4.67;3.00;;;;;20.83;73.41;101205.63;5029044;27;45285;-78
2022/09/10 09:40:48;;;;;;;;;4.33;4.33;;;;;20.84;74.09;101201.88;5038793;28;45327;-78
2022/09/10 09:43:14;;;;;;;;;5.67;5.00;;;;;20.98;73.80;101207.94;5051467;28;48224;-79
2022/09/10 09:45:42;;;;;;;;;7.00;5.67;;;;;20.97;73.13;101195.47;5028763;28;45334;-78
2022/09/10 09:48:15;;;;;;;;;5.67;5.67;;;;;20.93;72.37;101208.63;5017813;28;45347;-79
2022/09/10 09:50:56;;;;;;;;;5.00;5.00;;;;;20.92;72.91;101220.50;5024999;28;45389;-81
2022/09/10 09:53:27;;;;;;;;;5.00;5.00;;;;;20.84;73.52;101224.31;5037576;28;47109;-79
2022/09/10 09:56:06;;;;;;;;;6.67;6.33;;;;;20.70;72.73;101218.28;5033262;28;45332;-78
2022/09/10 09:58:34;;;;;;;;;5.00;4.67;;;;;20.65;72.50;101229.78;5033677;28;45404;-80
2022/09/10 10:01:02;;;;;;;;;5.67;5.00;;;;;20.60;73.59;101235.06;5022678;28;47212;-80
2022/09/10 10:03:34;;;;;;;;;9.00;8.00;;;;;20.55;73.45;101227.66;5035388;28;45548;-79
2022/09/10 10:06:05;;;;;;;;;5.67;5.00;;;;;20.50;72.86;101224.78;5040750;28;45443;-78
2022/09/10 10:08:40;;;;;;;;;4.67;4.67;;;;;20.47;73.59;101232.53;5027010;28;45293;-79
2022/09/10 10:11:06;;;;;;;;;5.67;5.67;;;;;20.36;73.96;101228.75;5035204;28;45346;-80
2022/09/10 10:13:39;;;;;;;;;6.67;6.00;;;;;20.44;74.76;101244.59;5028836;28;46566;-79
2022/09/10 10:16:16;;;;;;;;;8.67;8.00;;;;;20.40;74.45;101235.31;5040199;28;45488;-78
2022/09/10 10:18:43;;;;;;;;;5.00;5.00;;;;;20.42;74.26;101241.31;5023416;28;44655;-79
2022/09/10 10:21:11;;;;;;;;;5.00;5.00;;;;;20.39;74.66;101239.91;5023249;28;45585;-78
2022/09/10 10:23:37;;;;;;;;;5.00;5.00;;;;;20.33;74.69;101226.50;5018088;28;46347;-79
2022/09/10 10:26:27;;;;;;;;;5.33;5.00;;;;;20.38;75.09;101237.44;5021238;28;45274;-78
2022/09/10 10:28:58;;;;;;;;;6.67;5.00;;;;;20.30;74.71;101235.88;5017448;28;45311;-78
2022/09/10 10:31:36;;;;;;;;;4.00;4.00;;;;;20.22;74.96;101233.47;5022210;28;45268;-79
2022/09/10 10:34:13;;;;;;;;;4.33;4.33;;;;;20.20;75.12;101235.59;5033677;28;46211;-80
2022/09/10 10:36:58;;;;;;;;;4.00;4.00;;;;;20.11;75.16;101235.88;5033685;28;45412;-78
2022/09/10 10:39:46;;;;;;;;;7.33;5.33;;;;;20.08;75.44;101243.63;5029820;28;45357;-80
2022/09/10 10:42:38;;;;;;;;;5.33;5.00;;;;;20.01;76.72;101249.94;4982542;28;46640;-79
2022/09/10 10:45:30;;;;;;;;;7.00;7.00;;;;;20.09;77.19;101250.66;5018908;28;45350;-78
2022/09/10 10:48:15;;;;;;;;;7.00;5.00;;;;;20.13;77.31;101238.38;5019026;28;45745;-79
2022/09/10 10:50:57;;;;;;;;;8.67;8.67;;;;;20.15;77.82;101242.50;5020756;28;45384;-78
2022/09/10 10:53:39;;;;;;;;;9.00;9.00;;;;;20.16;77.81;101254.09;5016904;28;45294;-81
2022/09/10 10:56:26;;;;;;;;;7.33;7.33;;;;;20.19;78.27;101240.16;5016907;28;45404;-79
2022/09/10 10:59:18;;;;;;;;;7.00;6.67;;;;;20.23;78.64;101252.13;5025134;28;45343;-78
2022/09/10 11:01:52;;;;;;;;;8.33;8.33;;;;;20.24;79.39;101252.97;5022433;28;45474;-76
2022/09/10 11:04:36;;;;;;;;;4.00;4.00;;;;;20.12;79.85;101256.44;5022532;28;45405;-77
2022/09/10 11:07:24;;;;;;;;;6.67;6.00;;;;;20.27;79.24;101252.53;5028406;28;48386;-77
2022/09/10 11:09:50;;;;;;;;;5.33;5.33;;;;;20.09;79.97;101256.91;5023458;28;45467;-76
2022/09/10 11:12:24;;;;;;;;;6.67;6.00;;;;;20.04;80.69;101254.88;5020281;28;45386;-76
2022/09/10 11:15:18;;;;;;;;;8.00;8.00;;;;;20.01;80.90;101249.09;5019126;28;45371;-77
2022/09/10 11:17:54;;;;;;;;;9.00;9.00;;;;;19.99;80.62;101256.56;5030145;28;45401;-77
2022/09/10 11:20:27;;;;;;;;;9.00;9.00;;;;;19.99;81.13;101246.59;5021101;28;45343;-77
2022/09/10 11:23:02;;;;;;;;;8.00;8.00;;;;;20.04;81.16;101249.47;5045144;28;45503;-77
2022/09/10 11:25:35;;;;;;;;;9.00;7.00;;;;;19.99;80.77;101241.19;5021450;28;45660;-76
2022/09/10 11:28:12;;;;;;;;;5.33;5.33;;;;;20.01;80.28;101244.53;5020429;28;46106;-77
2022/09/10 11:30:44;;;;;;;;;7.67;7.00;;;;;20.01;80.27;101252.63;5016008;28;45392;-77
2022/09/10 11:33:22;;;;;;;;;8.33;6.67;;;;;19.97;80.72;101254.09;5021795;28;45341;-77
2022/09/10 11:36:11;;;;;;;;;7.00;7.00;;;;;19.97;81.13;101247.88;5018726;28;45490;-77
2022/09/10 11:38:53;;;;;;;;;6.00;6.00;;;;;20.05;81.01;101240.31;5028184;27;46216;-76